BBW weather

Broken Bow Municipal Airport
Broken Bow, Nebraska, United States

Public forecast

Using degrees Fahrenheit for public forecast. Weather courtesy of forecast.io.

Current aviation weather report (METAR) for Broken Bow Municipal Airport

Retrieved 2020/02/18 05:53 UTC (18 minutes ago):

KBBW 180553Z AUTO 32004KT 10SM CLR M04/M08 A3018 RMK AO2 SLP246 T10441078 10000 21050 400611050 51032

Closest aviation forecast (TAF) to Broken Bow Municipal Airport

Closest forecast is North Platte Regional Airport Lee Bird Field, 50.6 nm (93.6 km) WSW. Retrieved 2020/02/18 06:22 UTC (0 seconds ago):

TAF KLBF 180520Z 1806/1906 35003KT P6SM BKN070 FM182000 25006KT P6SM SCT250 FM190300 08006KT P6SM SCT180